Time;durP1;ratioP1;P1;durP2;ratioP2;P2;SDS_P1;SDS_P2;PMS_P1;PMS_P2;Temp;Humidity;BMP_temperature;BMP_pressure;BME280_temperature;BME280_humidity;BME280_pressure;Samples;Min_cycle;Max_cycle;Signal;HPM_P1;HPM_P2
2022/09/13 00:00:41;;;;;;;7.93;6.23;;;;;;;17.90;76.67;100802.94;5096066;28;20085;-84
2022/09/13 00:03:08;;;;;;;8.30;5.82;;;;;;;17.91;77.47;100807.31;5061183;28;20039;-84
2022/09/13 00:05:35;;;;;;;8.90;5.97;;;;;;;17.92;77.81;100809.78;5095670;28;20031;-84
2022/09/13 00:08:00;;;;;;;9.80;6.47;;;;;;;17.92;76.71;100819.94;5077778;28;20065;-84
2022/09/13 00:10:26;;;;;;;10.40;6.57;;;;;;;17.91;76.88;100816.38;5077894;28;20385;-84
2022/09/13 00:12:53;;;;;;;9.02;6.38;;;;;;;17.92;77.48;100808.97;5061938;28;20068;-84
2022/09/13 00:15:19;;;;;;;9.15;6.07;;;;;;;17.89;76.47;100813.03;5078158;28;20060;-84
2022/09/13 00:17:44;;;;;;;7.93;6.18;;;;;;;17.82;76.66;100807.78;5060918;28;20040;-84
2022/09/13 00:20:10;;;;;;;9.47;6.27;;;;;;;17.81;76.42;100808.88;5061106;28;20402;-84
2022/09/13 00:22:36;;;;;;;8.43;6.50;;;;;;;17.82;76.33;100795.97;5094802;28;20080;-84
2022/09/13 00:25:05;;;;;;;11.25;6.80;;;;;;;17.80;76.55;100795.41;5077015;28;20223;-84
2022/09/13 00:27:32;;;;;;;9.07;6.43;;;;;;;17.81;76.87;100786.91;5077631;28;20039;-84
2022/09/13 00:29:58;;;;;;;10.82;6.38;;;;;;;17.84;76.28;100799.28;5060898;28;20032;-84
2022/09/13 00:32:23;;;;;;;9.47;6.63;;;;;;;17.81;76.15;100797.06;5060720;28;20401;-84
2022/09/13 00:34:49;;;;;;;10.60;6.53;;;;;;;17.78;76.20;100789.38;5077589;28;20020;-84
2022/09/13 00:37:14;;;;;;;11.00;6.37;;;;;;;17.76;76.49;100789.66;5076867;28;20446;-84
2022/09/13 00:39:40;;;;;;;12.40;6.67;;;;;;;17.74;76.63;100794.56;5061266;28;20292;-84
2022/09/13 00:42:10;;;;;;;10.00;6.77;;;;;;;17.70;76.99;100788.78;5060662;28;20032;-84
2022/09/13 00:44:59;;;;;;;7.72;6.30;;;;;;;17.71;76.26;100781.38;5077048;28;20059;-84
2022/09/13 00:47:54;;;;;;;11.18;6.38;;;;;;;17.68;76.89;100781.91;5095226;28;20023;-84
2022/09/13 00:50:28;;;;;;;10.03;6.40;;;;;;;17.67;78.16;100772.00;5094676;28;20032;-84
2022/09/13 00:53:16;;;;;;;8.52;6.60;;;;;;;17.67;77.09;100780.22;5094820;28;20027;-84
2022/09/13 00:55:47;;;;;;;8.65;6.25;;;;;;;17.68;77.95;100779.16;5076474;28;20024;-84
2022/09/13 00:58:19;;;;;;;8.98;6.57;;;;;;;17.66;77.94;100773.13;5077031;28;20462;-84
2022/09/13 01:00:46;;;;;;;8.40;6.18;;;;;;;17.64;77.61;100769.78;5077017;28;20393;-84
2022/09/13 01:03:15;;;;;;;12.27;6.70;;;;;;;17.62;77.78;100772.81;5076244;28;20115;-84
2022/09/13 01:05:45;;;;;;;10.70;6.35;;;;;;;17.61;78.23;100765.69;5060478;28;20393;-84
2022/09/13 01:08:21;;;;;;;8.73;6.72;;;;;;;17.60;78.60;100764.03;5076886;28;20035;-84
2022/09/13 01:10:49;;;;;;;12.20;6.18;;;;;;;17.60;78.62;100771.41;5076893;28;20462;-84
2022/09/13 01:13:27;;;;;;;7.72;6.50;;;;;;;17.61;77.96;100773.06;5077113;28;20024;-84
2022/09/13 01:15:53;;;;;;;9.60;6.70;;;;;;;17.59;77.87;100765.09;5095213;28;20039;-84
2022/09/13 01:18:18;;;;;;;11.85;6.53;;;;;;;17.60;78.07;100766.75;5076316;28;20028;-84
2022/09/13 01:21:03;;;;;;;9.53;7.03;;;;;;;17.58;77.52;100759.88;5075950;28;20132;-84
2022/09/13 01:23:43;;;;;;;14.13;6.50;;;;;;;17.55;78.14;100758.47;5076504;28;20542;-84
2022/09/13 01:26:43;;;;;;;8.45;6.95;;;;;;;17.54;77.95;100762.34;5076582;28;20382;-84
2022/09/13 01:29:50;;;;;;;11.00;6.60;;;;;;;17.53;78.45;100766.16;5076815;28;20081;-84
2022/09/13 01:32:33;;;;;;;10.63;6.22;;;;;;;17.53;78.87;100755.19;5021161;28;20040;-84
2022/09/13 01:35:22;;;;;;;10.93;6.57;;;;;;;17.54;78.19;100756.84;5076508;28;20112;-84
2022/09/13 01:38:10;;;;;;;13.05;6.90;;;;;;;17.53;78.61;100760.69;5030416;28;20032;-84
2022/09/13 01:41:00;;;;;;;12.13;5.78;;;;;;;17.56;78.59;100762.06;5076668;28;20028;-84
2022/09/13 01:43:47;;;;;;;10.68;6.20;;;;;;;17.58;78.18;100760.69;5076531;28;20377;-84
2022/09/13 01:46:27;;;;;;;7.60;6.15;;;;;;;17.58;77.93;100754.41;5076329;28;20381;-84
2022/09/13 01:49:12;;;;;;;9.53;6.50;;;;;;;17.57;78.00;100759.06;5076238;28;20028;-84
2022/09/13 01:52:05;;;;;;;7.25;6.20;;;;;;;17.61;77.27;100756.59;5076511;28;20024;-84
2022/09/13 01:54:42;;;;;;;12.55;6.60;;;;;;;17.62;77.93;100750.84;5076151;28;20043;-84
2022/09/13 01:57:18;;;;;;;7.90;6.45;;;;;;;17.56;78.64;100748.38;5094225;28;20484;-84
2022/09/13 01:59:49;;;;;;;8.95;6.53;;;;;;;17.44;79.60;100745.81;5076053;28;20024;-84
2022/09/13 02:02:14;;;;;;;7.77;6.27;;;;;;;17.40;80.66;100745.50;5075513;28;20032;-84
2022/09/13 02:04:45;;;;;;;8.70;6.38;;;;;;;17.39;81.43;100746.59;5075682;28;20040;-84
2022/09/13 02:07:31;;;;;;;9.53;6.70;;;;;;;17.41;81.80;100749.91;5075836;28;20024;-84
2022/09/13 02:10:02;;;;;;;7.93;6.13;;;;;;;17.44;82.98;100743.88;5076572;28;20073;-84
2022/09/13 02:12:33;;;;;;;10.15;6.18;;;;;;;17.53;83.50;100756.00;5094093;28;20024;-84
2022/09/13 02:15:09;;;;;;;8.93;6.40;;;;;;;17.56;83.77;100749.19;5076663;28;20063;-84
2022/09/13 02:17:42;;;;;;;10.15;6.45;;;;;;;17.57;82.18;100750.84;5075338;28;20032;-84
2022/09/13 02:20:15;;;;;;;8.83;6.17;;;;;;;17.57;81.18;100755.47;5075403;28;20052;-84
2022/09/13 02:22:48;;;;;;;7.97;6.10;;;;;;;17.58;81.15;100751.66;5075645;28;20066;-84
2022/09/13 02:25:17;;;;;;;10.30;5.63;;;;;;;17.61;83.59;100757.44;5076387;28;20052;-84
2022/09/13 02:27:48;;;;;;;8.18;6.25;;;;;;;17.61;82.26;100746.47;5075316;28;20123;-84
2022/09/13 02:30:14;;;;;;;9.00;6.10;;;;;;;17.69;83.10;100756.94;5075722;28;20071;-84
2022/09/13 02:32:45;;;;;;;9.20;6.07;;;;;;;17.71;84.61;100759.41;5075762;28;20040;-84
2022/09/13 02:35:18;;;;;;;8.57;5.55;;;;;;;17.80;84.76;100757.81;5075737;28;20359;-84
2022/09/13 02:37:49;;;;;;;9.20;6.35;;;;;;;17.78;83.47;100754.53;5093355;28;20537;-84
2022/09/13 02:40:21;;;;;;;6.43;5.70;;;;;;;17.78;81.64;100765.50;5075081;28;20020;-84
2022/09/13 02:42:56;;;;;;;7.40;6.28;;;;;;;17.75;80.92;100771.50;5075672;28;20141;-84
2022/09/13 02:45:28;;;;;;;7.20;6.43;;;;;;;17.70;81.81;100776.97;5093977;28;20032;-84
2022/09/13 02:47:58;;;;;;;8.35;6.13;;;;;;;17.71;82.57;100770.38;5078961;28;20495;-84
2022/09/13 02:50:40;;;;;;;11.40;6.50;;;;;;;17.70;81.85;100779.69;5080336;28;20373;-84
2022/09/13 02:53:24;;;;;;;8.90;6.50;;;;;;;17.64;82.09;100778.88;5079772;28;20062;-84
2022/09/13 02:56:04;;;;;;;9.60;5.95;;;;;;;17.59;82.45;100784.31;5079580;28;20111;-84
2022/09/13 02:58:34;;;;;;;8.63;6.20;;;;;;;17.56;81.55;100779.34;5079328;28;20043;-84
2022/09/13 03:01:00;;;;;;;12.40;6.57;;;;;;;17.50;81.77;100770.25;5079577;28;20024;-84
2022/09/13 03:03:26;;;;;;;10.82;6.07;;;;;;;17.48;82.49;100777.09;5078799;28;20105;-84
2022/09/13 03:05:52;;;;;;;9.38;6.80;;;;;;;17.43;82.35;100775.13;5079124;28;20028;-84
2022/09/13 03:08:20;;;;;;;7.80;6.00;;;;;;;17.42;82.30;100770.75;5079084;28;20032;-84
2022/09/13 03:11:04;;;;;;;8.25;6.00;;;;;;;17.41;81.63;100776.50;5078972;28;20035;-83
2022/09/13 03:13:43;;;;;;;8.65;6.10;;;;;;;17.41;82.03;100771.03;5078763;28;20389;-84
2022/09/13 03:16:32;;;;;;;11.38;6.03;;;;;;;17.43;81.93;100771.56;5079093;28;20031;-84
2022/09/13 03:19:22;;;;;;;9.25;6.45;;;;;;;17.42;82.26;100765.28;5078972;28;20043;-84
2022/09/13 03:21:54;;;;;;;7.80;6.10;;;;;;;17.44;81.69;100763.09;5078772;28;20044;-84
2022/09/13 03:24:27;;;;;;;6.60;5.85;;;;;;;17.46;82.67;100769.13;5078512;28;20028;-85
2022/09/13 03:27:17;;;;;;;11.00;6.43;;;;;;;17.46;82.43;100765.56;5078245;28;20032;-84
2022/09/13 03:30:05;;;;;;;10.02;6.28;;;;;;;17.42;83.25;100757.06;5079370;28;20114;-84
2022/09/13 03:32:52;;;;;;;10.65;6.50;;;;;;;17.49;82.11;100765.03;5096678;28;20093;-84
2022/09/13 03:35:24;;;;;;;7.67;5.70;;;;;;;17.50;81.71;100762.03;5078717;28;20032;-84
2022/09/13 03:38:11;;;;;;;11.68;6.32;;;;;;;17.47;81.28;100759.00;5079104;28;20071;-84
2022/09/13 03:40:50;;;;;;;7.10;6.20;;;;;;;17.40;81.98;100761.13;5077886;28;20119;-84
2022/09/13 03:43:25;;;;;;;8.13;6.15;;;;;;;17.36;82.57;100767.16;5078551;28;20032;-85
2022/09/13 03:45:59;;;;;;;7.60;5.90;;;;;;;17.37;82.32;100762.47;5078279;28;20036;-84
2022/09/13 03:48:26;;;;;;;8.00;5.90;;;;;;;17.38;82.85;100761.41;5078396;28;20453;-84
2022/09/13 03:50:52;;;;;;;9.60;6.15;;;;;;;17.36;83.06;100755.34;5078061;28;20032;-84
2022/09/13 03:53:24;;;;;;;8.35;6.13;;;;;;;17.34;82.74;100758.34;5078381;28;20032;-84
2022/09/13 03:55:50;;;;;;;6.80;6.07;;;;;;;17.29;83.07;100746.53;5077922;28;20024;-85
2022/09/13 03:58:20;;;;;;;10.13;6.18;;;;;;;17.21;83.82;100756.06;5076573;28;20461;-84
2022/09/13 04:00:46;;;;;;;12.83;6.47;;;;;;;17.21;84.04;100747.81;5096035;28;20495;-84
2022/09/13 04:03:13;;;;;;;9.70;5.93;;;;;;;17.19;84.19;100750.00;5077485;28;20381;-84
2022/09/13 04:05:38;;;;;;;10.18;6.30;;;;;;;17.19;83.91;100755.50;5077868;28;20028;-84
2022/09/13 04:08:06;;;;;;;7.82;6.15;;;;;;;17.21;83.03;100753.31;5077477;28;20024;-84
2022/09/13 04:10:32;;;;;;;10.87;6.30;;;;;;;17.21;83.25;100764.28;5078565;28;20450;-84
2022/09/13 04:13:01;;;;;;;8.75;6.22;;;;;;;17.23;83.75;100764.84;5044646;28;20051;-84
2022/09/13 04:15:27;;;;;;;7.90;5.75;;;;;;;17.23;83.55;100770.34;5061312;28;20079;-84
2022/09/13 04:17:56;;;;;;;7.22;6.03;;;;;;;17.22;83.52;100774.16;5060900;28;20469;-84
2022/09/13 04:20:21;;;;;;;9.25;6.65;;;;;;;17.17;84.21;100782.34;5073670;28;20111;-84
2022/09/13 04:22:54;;;;;;;9.83;6.40;;;;;;;17.10;83.63;100781.75;5075126;28;20040;-84
2022/09/13 04:25:21;;;;;;;8.52;6.28;;;;;;;17.08;83.76;100775.69;5073857;28;20036;-84
2022/09/13 04:27:47;;;;;;;7.43;5.90;;;;;;;17.06;84.24;100786.09;5040527;28;20036;-84
2022/09/13 04:30:13;;;;;;;8.27;6.75;;;;;;;17.05;84.32;100788.00;5075092;28;20032;-84
2022/09/13 04:32:42;;;;;;;7.80;6.15;;;;;;;17.04;84.66;100793.72;5073943;28;20126;-84
2022/09/13 04:35:08;;;;;;;10.18;6.50;;;;;;;16.99;84.41;100794.50;5073843;28;20028;-83
2022/09/13 04:37:33;;;;;;;7.93;6.07;;;;;;;16.95;85.10;100799.69;5057035;28;20123;-84
2022/09/13 04:39:58;;;;;;;7.55;6.07;;;;;;;16.93;85.01;100806.50;5073569;28;20471;-84
2022/09/13 04:42:24;;;;;;;10.23;6.73;;;;;;;16.89;85.05;100802.63;5057520;28;20098;-83
2022/09/13 04:44:49;;;;;;;9.50;6.30;;;;;;;16.86;85.65;100803.13;5039837;28;20044;-84
2022/09/13 04:47:15;;;;;;;10.07;6.60;;;;;;;16.83;86.14;100809.97;5057154;28;20483;-84
2022/09/13 04:49:40;;;;;;;12.73;6.40;;;;;;;16.83;85.65;100804.47;5073532;28;20480;-84
2022/09/13 04:52:06;;;;;;;10.13;6.72;;;;;;;16.83;85.60;100799.81;5073748;28;20177;-84
2022/09/13 04:54:31;;;;;;;7.73;6.20;;;;;;;16.84;85.81;100793.25;5039856;28;20033;-84
2022/09/13 04:56:56;;;;;;;15.07;7.10;;;;;;;16.87;86.06;100807.53;5057311;28;20036;-84
2022/09/13 04:59:22;;;;;;;8.68;6.03;;;;;;;16.88;86.46;100803.72;5073055;28;20037;-84
2022/09/13 05:01:48;;;;;;;10.10;6.50;;;;;;;16.90;86.03;100796.06;5056451;28;20505;-84
2022/09/13 05:04:13;;;;;;;9.97;6.50;;;;;;;16.94;86.30;100802.69;5073502;28;20098;-84
2022/09/13 05:06:39;;;;;;;10.40;6.60;;;;;;;16.94;86.79;100795.28;5056409;28;20119;-84
2022/09/13 05:09:05;;;;;;;10.65;6.43;;;;;;;16.96;85.55;100790.41;5072411;28;20035;-84
2022/09/13 05:11:30;;;;;;;11.82;6.88;;;;;;;16.94;85.51;100795.28;5074498;28;20029;-86
2022/09/13 05:14:02;;;;;;;10.87;7.10;;;;;;;16.95;85.10;100796.94;5073012;28;20029;-88
2022/09/13 05:16:32;;;;;;;15.18;6.82;;;;;;;17.01;85.72;100800.56;5074250;28;20060;-86
2022/09/13 05:19:01;;;;;;;9.82;6.68;;;;;;;17.05;86.35;100795.38;5072755;28;20158;-86
2022/09/13 05:21:29;;;;;;;12.00;6.90;;;;;;;17.09;85.40;100783.63;5072910;28;20127;-87
2022/09/13 05:23:56;;;;;;;12.60;6.88;;;;;;;17.16;85.10;100799.88;5072922;28;20481;-87
2022/09/13 05:26:24;;;;;;;10.20;6.50;;;;;;;17.20;86.54;100795.53;5056153;28;20033;-86
2022/09/13 05:28:52;;;;;;;9.35;6.43;;;;;;;17.24;86.73;100802.13;5072421;28;20039;-88
2022/09/13 05:31:28;;;;;;;10.27;6.35;;;;;;;17.29;86.61;100804.94;5056367;28;20085;-86
2022/09/13 05:34:02;;;;;;;11.70;6.17;;;;;;;17.32;85.71;100804.41;5073142;28;20036;-87
2022/09/13 05:36:28;;;;;;;10.40;6.57;;;;;;;17.34;85.20;100804.16;5072498;28;20032;-86
2022/09/13 05:38:54;;;;;;;11.20;6.75;;;;;;;17.36;85.02;100808.28;5072080;28;20381;-87
2022/09/13 05:41:20;;;;;;;6.82;6.13;;;;;;;17.43;84.72;100807.22;5072289;28;20028;-87
2022/09/13 05:43:46;;;;;;;9.93;6.53;;;;;;;17.48;85.45;100812.75;5072451;28;20442;-87
2022/09/13 05:46:17;;;;;;;10.43;7.55;;;;;;;17.47;83.83;100814.66;5072572;28;20032;-87
2022/09/13 05:48:48;;;;;;;9.35;6.80;;;;;;;17.49;84.66;100815.25;5072587;28;20165;-87
2022/09/13 05:51:20;;;;;;;9.43;6.43;;;;;;;17.54;84.35;100817.19;5073148;28;20032;-87
2022/09/13 05:53:48;;;;;;;10.95;6.90;;;;;;;17.58;83.97;100812.81;5072073;28;20111;-84
2022/09/13 05:59:20;;;;;;;13.57;6.97;;;;;;;17.71;82.92;100809.63;5058900;28;20514;-85
2022/09/13 06:01:47;;;;;;;14.85;7.97;;;;;;;17.76;82.82;100808.84;5055294;28;20028;-85
2022/09/13 06:04:13;;;;;;;16.47;8.00;;;;;;;17.82;82.95;100813.28;5072461;28;20493;-85
2022/09/13 06:06:41;;;;;;;13.38;7.28;;;;;;;17.84;83.60;100815.75;5071770;28;20032;-85
2022/09/13 06:09:08;;;;;;;9.90;7.80;;;;;;;17.88;83.03;100806.72;5072544;28;20089;-85
2022/09/13 06:11:33;;;;;;;10.43;7.47;;;;;;;17.86;82.72;100808.91;5072247;28;20105;-85
2022/09/13 06:14:10;;;;;;;11.03;8.07;;;;;;;17.85;83.86;100804.50;5072862;28;20523;-85
2022/09/13 06:16:38;;;;;;;10.27;7.55;;;;;;;17.84;84.72;100815.75;5072089;28;20040;-85
2022/09/13 06:19:03;;;;;;;15.03;7.50;;;;;;;17.86;84.07;100811.66;5054960;28;20033;-85
2022/09/13 06:21:29;;;;;;;11.10;7.53;;;;;;;17.90;84.41;100811.16;5074476;28;20136;-87
2022/09/13 06:23:54;;;;;;;13.67;7.73;;;;;;;17.93;83.51;100808.69;5075739;28;20090;-87
2022/09/13 06:26:22;;;;;;;11.80;7.40;;;;;;;18.01;83.52;100813.69;5075822;28;20453;-87
2022/09/13 06:28:50;;;;;;;10.20;8.00;;;;;;;18.08;81.96;100805.19;5076067;28;20458;-87
2022/09/13 06:31:19;;;;;;;10.00;7.78;;;;;;;18.17;81.43;100797.28;5075976;28;20086;-87
2022/09/13 06:33:45;;;;;;;13.48;8.07;;;;;;;18.25;80.76;100810.50;5075821;28;20033;-87
2022/09/13 06:36:20;;;;;;;11.57;7.82;;;;;;;18.33;81.22;100803.69;5075500;28;20028;-87
2022/09/13 06:38:49;;;;;;;11.87;8.33;;;;;;;18.41;80.36;100801.25;5075618;28;20081;-87
2022/09/13 06:41:17;;;;;;;13.82;8.00;;;;;;;18.54;80.32;100804.56;5075408;28;20032;-86
2022/09/13 06:43:43;;;;;;;12.73;8.00;;;;;;;18.61;79.79;100799.66;5075632;28;20033;-87
2022/09/13 06:46:12;;;;;;;13.73;8.80;;;;;;;18.64;78.90;100806.53;5076384;28;20478;-87
2022/09/13 06:48:49;;;;;;;14.52;8.93;;;;;;;18.71;79.74;100796.94;5075736;28;20029;-87
2022/09/13 06:51:17;;;;;;;18.43;8.77;;;;;;;18.75;79.29;100802.72;5076558;28;20031;-87
2022/09/13 06:53:44;;;;;;;15.93;8.23;;;;;;;18.74;78.88;100803.81;5075097;28;20078;-89
2022/09/13 06:56:16;;;;;;;12.27;8.10;;;;;;;18.69;79.94;100812.03;5075300;28;20034;-87
2022/09/13 06:58:43;;;;;;;13.02;8.07;;;;;;;18.63;80.50;100808.47;5075660;28;20068;-87
2022/09/13 07:01:12;;;;;;;12.18;8.68;;;;;;;18.62;80.59;100806.00;5075754;28;20029;-87
2022/09/13 07:03:44;;;;;;;14.63;8.57;;;;;;;18.69;80.56;100801.03;5076676;28;20028;-87
2022/09/13 07:06:17;;;;;;;14.90;8.88;;;;;;;18.82;80.07;100805.19;5077084;28;20035;-87
2022/09/13 07:08:46;;;;;;;13.45;8.43;;;;;;;18.93;79.77;100801.41;5076095;28;20365;-87
2022/09/13 07:11:14;;;;;;;10.70;8.48;;;;;;;19.00;79.38;100809.38;5076034;28;20028;-86
2022/09/13 07:13:40;;;;;;;15.07;9.73;;;;;;;19.06;79.07;100805.53;5076177;28;20059;-87
2022/09/13 07:16:10;;;;;;;14.90;9.10;;;;;;;19.14;78.80;100799.50;5075252;28;20060;-87
2022/09/13 07:18:37;;;;;;;16.85;9.68;;;;;;;19.15;78.57;100798.41;5076183;28;20504;-87
2022/09/13 07:21:08;;;;;;;14.65;9.93;;;;;;;19.20;78.65;100800.31;5075040;28;20040;-87
2022/09/13 07:23:37;;;;;;;14.27;10.63;;;;;;;19.34;77.67;100804.19;5076626;28;20501;-87
2022/09/13 07:26:06;;;;;;;47.87;13.20;;;;;;;19.49;77.33;100808.84;5080239;28;20082;-86
2022/09/13 07:28:37;;;;;;;40.40;12.65;;;;;;;19.60;77.56;100809.66;5075450;28;20111;-88
2022/09/13 07:31:07;;;;;;;41.85;12.02;;;;;;;19.68;76.84;100825.63;5077992;28;20059;-85
2022/09/13 07:33:33;;;;;;;41.50;13.50;;;;;;;19.79;76.77;100821.75;5079891;28;20032;-87
2022/09/13 07:42:37;;;;;;;16.98;11.30;;;;;;;20.08;75.91;100823.91;5077672;28;20157;-86
2022/09/13 07:45:09;;;;;;;14.68;11.60;;;;;;;20.30;74.91;100826.31;5078826;28;20093;-87
2022/09/13 07:47:36;;;;;;;19.00;11.63;;;;;;;20.36;74.27;100829.88;5077685;28;20028;-86
2022/09/13 07:50:01;;;;;;;16.88;11.60;;;;;;;20.46;74.52;100829.84;5074335;28;20021;-86
2022/09/13 07:52:27;;;;;;;17.30;11.63;;;;;;;20.58;74.24;100835.03;5074840;28;20078;-86
2022/09/13 07:54:53;;;;;;;14.45;11.73;;;;;;;20.66;73.85;100831.69;5074413;28;20021;-86
2022/09/13 07:57:18;;;;;;;23.48;13.07;;;;;;;20.71;73.50;100825.31;5074328;28;20025;-86
2022/09/13 07:59:44;;;;;;;17.30;12.73;;;;;;;20.83;73.55;100833.25;5074451;28;20089;-86
2022/09/13 08:02:20;;;;;;;20.60;12.73;;;;;;;20.97;73.79;100839.78;5074109;28;20028;-86
2022/09/13 08:04:45;;;;;;;23.13;12.70;;;;;;;21.13;73.18;100829.47;5074689;28;20468;-87
2022/09/13 08:07:11;;;;;;;22.97;12.93;;;;;;;21.22;72.76;100834.41;5073744;28;20029;-87
2022/09/13 08:09:39;;;;;;;25.75;14.30;;;;;;;21.23;72.60;100842.38;5074160;28;20026;-86
2022/09/13 08:12:07;;;;;;;21.17;14.30;;;;;;;21.29;72.15;100843.97;5074248;28;20040;-86
2022/09/13 08:14:33;;;;;;;23.05;15.15;;;;;;;21.44;71.28;100834.75;5074117;28;20040;-86
2022/09/13 08:17:01;;;;;;;21.08;15.57;;;;;;;21.51;71.48;100837.19;5075417;28;20385;-86
2022/09/13 08:19:26;;;;;;;22.97;15.70;;;;;;;21.68;71.33;100837.59;5058675;28;20033;-87
2022/09/13 08:21:52;;;;;;;22.95;15.50;;;;;;;21.87;70.28;100836.88;5077756;28;20070;-86
2022/09/13 08:24:22;;;;;;;25.57;17.40;;;;;;;21.97;70.36;100833.16;5060604;28;20462;-86
2022/09/13 08:26:56;;;;;;;27.02;17.48;;;;;;;22.17;69.52;100835.72;5077026;28;20024;-86
2022/09/13 08:29:22;;;;;;;22.75;17.60;;;;;;;22.31;69.06;100837.75;5076835;28;20028;-86
2022/09/13 08:31:50;;;;;;;24.13;18.03;;;;;;;22.39;69.36;100850.97;5061099;28;20059;-86
2022/09/13 08:34:16;;;;;;;27.70;17.20;;;;;;;22.54;69.05;100853.56;5061084;28;20166;-86
2022/09/13 08:36:42;;;;;;;25.98;18.63;;;;;;;22.56;68.59;100850.50;5076656;28;20115;-86
2022/09/13 08:39:13;;;;;;;25.70;18.95;;;;;;;22.54;68.89;100859.09;5077167;28;20114;-86
2022/09/13 08:41:39;;;;;;;26.90;18.50;;;;;;;22.62;68.34;100856.75;5076644;28;20032;-87
2022/09/13 08:44:17;;;;;;;25.00;18.88;;;;;;;22.60;68.74;100854.28;5077016;28;20040;-86
2022/09/13 08:46:51;;;;;;;24.10;18.07;;;;;;;22.59;68.85;100861.78;5077261;28;20039;-87
2022/09/13 08:49:39;;;;;;;24.98;18.85;;;;;;;22.64;68.45;100862.84;5077563;28;20488;-86
2022/09/13 08:52:14;;;;;;;26.05;18.83;;;;;;;22.74;68.70;100862.69;5063212;28;20477;-86
2022/09/13 08:54:42;;;;;;;27.48;18.85;;;;;;;22.80;69.30;100846.88;5076905;28;20032;-87
2022/09/13 08:57:15;;;;;;;25.00;19.17;;;;;;;22.88;68.44;100849.78;5076944;28;20024;-86
2022/09/13 09:00:19;;;;;;;24.07;17.50;;;;;;;23.07;68.55;100841.44;5077317;28;20036;-86
2022/09/13 09:03:02;;;;;;;23.73;18.58;;;;;;;23.22;67.80;100842.38;5036015;28;20032;-87
2022/09/13 09:05:50;;;;;;;25.73;18.98;;;;;;;23.42;67.10;100841.25;5076409;28;20039;-86
2022/09/13 09:08:32;;;;;;;26.17;18.80;;;;;;;23.62;67.22;100832.59;5077051;28;20031;-86
2022/09/13 09:11:06;;;;;;;24.38;17.67;;;;;;;23.73;65.72;100835.97;5076398;28;20036;-87
2022/09/13 09:13:39;;;;;;;27.67;19.30;;;;;;;23.89;64.49;100831.00;5076643;28;20454;-86
2022/09/13 09:16:27;;;;;;;28.60;19.70;;;;;;;24.04;64.91;100831.84;5076600;28;20057;-88
2022/09/13 09:19:01;;;;;;;22.50;17.67;;;;;;;24.22;63.95;100828.16;5076283;28;20073;-86
2022/09/13 09:21:30;;;;;;;23.60;16.35;;;;;;;24.32;62.99;100825.16;5076129;28;20052;-86
2022/09/13 09:23:58;;;;;;;22.63;16.35;;;;;;;24.47;62.58;100826.78;5075866;28;20483;-87
2022/09/13 09:26:28;;;;;;;20.07;16.27;;;;;;;24.70;61.64;100824.13;5059792;28;20461;-87
2022/09/13 09:29:33;;;;;;;24.98;17.42;;;;;;;25.06;62.31;100825.25;5076382;28;20028;-86
2022/09/13 09:32:20;;;;;;;22.13;15.32;;;;;;;25.31;60.41;100829.41;5094084;28;20028;-86
2022/09/13 09:34:55;;;;;;;24.23;15.95;;;;;;;25.52;60.02;100833.28;5076050;28;20036;-88
2022/09/13 09:37:42;;;;;;;22.23;16.95;;;;;;;25.59;59.82;100832.84;5078830;28;20043;-86
2022/09/13 09:40:13;;;;;;;18.87;14.37;;;;;;;25.67;58.58;100826.50;5075721;28;20074;-86
2022/09/13 09:43:19;;;;;;;23.77;14.20;;;;;;;26.02;58.78;100832.28;5075774;28;20028;-87
2022/09/13 09:45:49;;;;;;;20.45;15.35;;;;;;;26.26;56.19;100836.63;5063608;28;20024;-86
2022/09/13 09:48:21;;;;;;;20.85;15.55;;;;;;;26.34;55.58;100819.16;5093987;28;20469;-87
2022/09/13 09:50:53;;;;;;;21.48;15.30;;;;;;;26.37;55.71;100826.84;5075903;28;20024;-87
2022/09/13 09:53:58;;;;;;;20.07;12.73;;;;;;;26.48;56.57;100820.97;5075972;28;20059;-87
2022/09/13 09:57:23;;;;;;;;;;;;;;;;;;;;;
2022/09/13 10:00:14;;;;;;;16.10;13.00;;;;;;;26.48;55.92;100824.56;5088775;28;20040;-86
2022/09/13 10:02:46;;;;;;;18.83;12.63;;;;;;;26.67;55.64;100821.53;5059712;28;20032;-87
2022/09/13 10:05:26;;;;;;;18.75;14.13;;;;;;;26.74;55.08;100821.06;5075871;28;20031;-87
2022/09/13 10:08:04;;;;;;;19.03;13.63;;;;;;;26.66;55.88;100819.03;5076410;28;20028;-87
2022/09/13 10:10:34;;;;;;;17.27;12.90;;;;;;;26.74;55.20;100827.44;5075917;28;20484;-86
2022/09/13 10:13:00;;;;;;;16.13;12.80;;;;;;;27.02;55.15;100815.97;5093649;28;20082;-86
2022/09/13 10:15:32;;;;;;;18.25;14.13;;;;;;;27.03;53.56;100811.22;5076562;28;20020;-87
2022/09/13 10:18:02;;;;;;;16.77;13.98;;;;;;;27.35;53.75;100817.47;5093629;28;20024;-87
2022/09/13 10:20:30;;;;;;;16.60;12.07;;;;;;;27.75;52.28;100814.41;5075539;28;20052;-87
2022/09/13 10:23:13;;;;;;;15.25;10.95;;;;;;;28.21;52.01;100820.31;5058715;28;20074;-88
2022/09/13 10:25:49;;;;;;;14.13;11.63;;;;;;;28.32;49.85;100816.78;5093223;28;20039;-87
2022/09/13 10:28:18;;;;;;;13.35;10.57;;;;;;;28.32;50.08;100813.19;5076270;28;20114;-87
2022/09/13 10:30:53;;;;;;;13.07;10.55;;;;;;;28.08;50.88;100814.63;5075789;28;20032;-87
2022/09/13 10:33:30;;;;;;;14.80;11.20;;;;;;;28.14;51.08;100816.06;5075154;28;20078;-88
2022/09/13 10:35:59;;;;;;;16.42;12.57;;;;;;;28.13;50.18;100819.19;5075109;28;20542;-87
2022/09/13 10:38:33;;;;;;;16.45;12.00;;;;;;;28.35;50.16;100812.53;5075039;28;20025;-87
2022/09/13 10:41:08;;;;;;;13.70;11.93;;;;;;;28.46;50.04;100810.16;5075155;28;20034;-87
2022/09/13 10:43:45;;;;;;;16.15;11.45;;;;;;;28.30;50.80;100810.75;5093955;28;20028;-87
2022/09/13 10:46:20;;;;;;;16.60;10.70;;;;;;;28.28;50.57;100815.81;5093252;28;20078;-87
2022/09/13 10:48:55;;;;;;;15.07;11.15;;;;;;;28.37;50.85;100814.97;5092898;28;20032;-87
2022/09/13 10:51:26;;;;;;;17.27;12.85;;;;;;;28.47;50.36;100817.38;5075154;28;20039;-87
2022/09/13 10:54:14;;;;;;;21.50;13.70;;;;;;;28.55;50.56;100810.91;5074918;28;20581;-87
2022/09/13 10:56:44;;;;;;;17.75;13.45;;;;;;;28.48;50.75;100810.63;5074895;28;20397;-87
2022/09/13 10:59:33;;;;;;;15.27;11.10;;;;;;;28.76;50.42;100805.38;5058708;28;20036;-88
2022/09/13 11:02:25;;;;;;;20.73;12.07;;;;;;;28.74;49.32;100804.09;5049568;28;20044;-87
2022/09/13 11:05:17;;;;;;;15.73;11.70;;;;;;;29.09;49.47;100803.78;5074616;28;20047;-88
2022/09/13 11:08:01;;;;;;;15.57;11.10;;;;;;;29.43;48.35;100791.47;5095537;28;20020;-88
2022/09/13 11:10:54;;;;;;;12.30;9.75;;;;;;;30.06;47.13;100787.63;5078741;28;20082;-88
2022/09/13 11:13:51;;;;;;;12.73;9.60;;;;;;;31.45;45.76;100783.75;5097267;28;20036;-86
2022/09/13 11:16:51;;;;;;;13.93;9.60;;;;;;;32.27;42.63;100784.22;5078315;28;20035;-86
2022/09/13 11:19:52;;;;;;;13.48;9.85;;;;;;;34.17;39.73;100786.34;5093064;28;20039;-87
2022/09/13 11:22:48;;;;;;;16.60;11.10;;;;;;;36.16;34.64;100778.94;5078826;28;20038;-87
2022/09/13 11:25:35;;;;;;;14.52;8.75;;;;;;;38.50;31.16;100770.94;5078346;28;20457;-87
2022/09/13 11:28:08;;;;;;;11.83;8.47;;;;;;;40.25;29.08;100767.34;5078938;28;20511;-87
2022/09/13 11:30:51;;;;;;;10.95;7.95;;;;;;;41.76;25.87;100758.81;5078067;28;20405;-88
2022/09/13 11:33:31;;;;;;;8.95;8.13;;;;;;;42.25;25.41;100758.31;5079183;28;20123;-87
2022/09/13 11:36:26;;;;;;;11.68;7.53;;;;;;;42.79;25.68;100768.63;5078245;28;20031;-87
2022/09/13 11:39:15;;;;;;;11.45;7.55;;;;;;;41.46;24.65;100760.50;5067114;28;20568;-87
2022/09/13 11:41:59;;;;;;;11.20;7.90;;;;;;;42.22;23.26;100748.59;5078771;28;20432;-88
2022/09/13 11:44:46;;;;;;;7.82;6.78;;;;;;;44.97;23.43;100754.78;5078668;28;20036;-87
2022/09/13 11:48:02;;;;;;;8.45;7.65;;;;;;;47.02;21.78;100749.59;5077862;28;20032;-88
2022/09/13 11:50:32;;;;;;;8.32;7.45;;;;;;;48.11;17.17;100745.84;4977820;28;20039;-88
2022/09/13 11:53:38;;;;;;;8.80;8.00;;;;;;;47.76;19.26;100746.91;4994378;28;20042;-88
2022/09/13 11:56:16;;;;;;;10.70;9.40;;;;;;;45.65;20.30;100736.63;5062416;28;20040;-88
2022/09/13 11:58:57;;;;;;;9.70;8.75;;;;;;;44.69;21.05;100736.44;5077864;28;20028;-88